sensor_id;sensor_type;location;lat;lon;timestamp;pressure;altitude;pressure_sealevel;temperature;humidity
62632;BME280;48703;51.248;-0.546;2023-07-31T00:00:51;100320;;;16.57;98.71
62632;BME280;48703;51.248;-0.546;2023-07-31T00:03:53;100314;;;16.56;98.77
62632;BME280;48703;51.248;-0.546;2023-07-31T00:06:55;100312;;;16.56;99.06
62632;BME280;48703;51.248;-0.546;2023-07-31T00:09:57;100310;;;16.55;99.34
62632;BME280;48703;51.248;-0.546;2023-07-31T00:12:59;100307;;;16.55;99.44
62632;BME280;48703;51.248;-0.546;2023-07-31T00:16:01;100303;;;16.54;99.14
62632;BME280;48703;51.248;-0.546;2023-07-31T00:19:02;100301;;;16.55;99.37
62632;BME280;48703;51.248;-0.546;2023-07-31T00:22:05;100301;;;16.54;100.00
62632;BME280;48703;51.248;-0.546;2023-07-31T00:25:06;100299;;;16.53;100.00
62632;BME280;48703;51.248;-0.546;2023-07-31T00:28:08;100294;;;16.54;100.00
62632;BME280;48703;51.248;-0.546;2023-07-31T00:31:10;100292;;;16.54;100.00
62632;BME280;48703;51.248;-0.546;2023-07-31T00:34:12;100281;;;16.53;100.00
62632;BME280;48703;51.248;-0.546;2023-07-31T00:37:14;100281;;;16.54;100.00
62632;BME280;48703;51.248;-0.546;2023-07-31T00:40:15;100274;;;16.54;100.00
62632;BME280;48703;51.248;-0.546;2023-07-31T00:43:17;100272;;;16.54;100.00
62632;BME280;48703;51.248;-0.546;2023-07-31T00:46:19;100264;;;16.54;100.00
62632;BME280;48703;51.248;-0.546;2023-07-31T00:49:21;100258;;;16.54;100.00
62632;BME280;48703;51.248;-0.546;2023-07-31T00:52:23;100250;;;16.54;100.00
62632;BME280;48703;51.248;-0.546;2023-07-31T00:55:25;100250;;;16.54;100.00
62632;BME280;48703;51.248;-0.546;2023-07-31T00:58:27;100246;;;16.55;100.00
62632;BME280;48703;51.248;-0.546;2023-07-31T01:01:29;100243;;;16.55;100.00
62632;BME280;48703;51.248;-0.546;2023-07-31T01:04:30;100232;;;16.55;100.00
62632;BME280;48703;51.248;-0.546;2023-07-31T01:07:35;100230;;;16.56;100.00
62632;BME280;48703;51.248;-0.546;2023-07-31T01:10:35;100231;;;16.57;100.00
62632;BME280;48703;51.248;-0.546;2023-07-31T01:13:36;100226;;;16.58;100.00
62632;BME280;48703;51.248;-0.546;2023-07-31T01:16:38;100218;;;16.58;100.00
62632;BME280;48703;51.248;-0.546;2023-07-31T01:19:40;100218;;;16.59;100.00
62632;BME280;48703;51.248;-0.546;2023-07-31T01:22:54;100208;;;16.59;100.00
62632;BME280;48703;51.248;-0.546;2023-07-31T01:25:50;100208;;;16.59;100.00
62632;BME280;48703;51.248;-0.546;2023-07-31T01:28:47;100195;;;16.59;100.00
62632;BME280;48703;51.248;-0.546;2023-07-31T01:31:48;100196;;;16.60;100.00
62632;BME280;48703;51.248;-0.546;2023-07-31T01:34:49;100187;;;16.61;100.00
62632;BME280;48703;51.248;-0.546;2023-07-31T01:37:52;100175;;;16.62;100.00
62632;BME280;48703;51.248;-0.546;2023-07-31T01:40:53;100160;;;16.63;100.00
62632;BME280;48703;51.248;-0.546;2023-07-31T01:43:55;100156;;;16.63;100.00
62632;BME280;48703;51.248;-0.546;2023-07-31T01:46:57;100162;;;16.64;100.00
62632;BME280;48703;51.248;-0.546;2023-07-31T01:49:59;100164;;;16.65;100.00
62632;BME280;48703;51.248;-0.546;2023-07-31T01:53:00;100159;;;16.65;100.00
62632;BME280;48703;51.248;-0.546;2023-07-31T01:56:02;100154;;;16.66;100.00
62632;BME280;48703;51.248;-0.546;2023-07-31T01:59:04;100145;;;16.66;100.00
62632;BME280;48703;51.248;-0.546;2023-07-31T02:02:06;100148;;;16.66;100.00
62632;BME280;48703;51.248;-0.546;2023-07-31T02:05:08;100142;;;16.67;100.00
62632;BME280;48703;51.248;-0.546;2023-07-31T02:08:10;100134;;;16.68;100.00
62632;BME280;48703;51.248;-0.546;2023-07-31T02:11:12;100129;;;16.71;100.00
62632;BME280;48703;51.248;-0.546;2023-07-31T02:14:14;100123;;;16.71;100.00
62632;BME280;48703;51.248;-0.546;2023-07-31T02:17:15;100124;;;16.71;100.00
62632;BME280;48703;51.248;-0.546;2023-07-31T02:20:17;100122;;;16.72;100.00
62632;BME280;48703;51.248;-0.546;2023-07-31T02:23:19;100113;;;16.74;100.00
62632;BME280;48703;51.248;-0.546;2023-07-31T02:26:21;100111;;;16.74;100.00
62632;BME280;48703;51.248;-0.546;2023-07-31T02:29:23;100112;;;16.76;100.00
62632;BME280;48703;51.248;-0.546;2023-07-31T02:32:25;100114;;;16.77;100.00
62632;BME280;48703;51.248;-0.546;2023-07-31T02:35:27;100105;;;16.78;100.00
62632;BME280;48703;51.248;-0.546;2023-07-31T02:38:28;100098;;;16.78;100.00
62632;BME280;48703;51.248;-0.546;2023-07-31T02:41:30;100094;;;16.79;100.00
62632;BME280;48703;51.248;-0.546;2023-07-31T02:44:32;100092;;;16.80;100.00
62632;BME280;48703;51.248;-0.546;2023-07-31T02:47:34;100085;;;16.80;100.00
62632;BME280;48703;51.248;-0.546;2023-07-31T02:50:36;100082;;;16.81;100.00
62632;BME280;48703;51.248;-0.546;2023-07-31T02:53:38;100083;;;16.81;100.00
62632;BME280;48703;51.248;-0.546;2023-07-31T02:56:40;100082;;;16.83;100.00
62632;BME280;48703;51.248;-0.546;2023-07-31T02:59:42;100078;;;16.83;100.00
62632;BME280;48703;51.248;-0.546;2023-07-31T03:02:43;100075;;;16.83;100.00
62632;BME280;48703;51.248;-0.546;2023-07-31T03:05:45;100070;;;16.85;100.00
62632;BME280;48703;51.248;-0.546;2023-07-31T03:08:47;100074;;;16.86;100.00
62632;BME280;48703;51.248;-0.546;2023-07-31T03:11:49;100071;;;16.88;100.00
62632;BME280;48703;51.248;-0.546;2023-07-31T03:14:51;100073;;;16.89;100.00
62632;BME280;48703;51.248;-0.546;2023-07-31T03:17:53;100070;;;16.90;100.00
62632;BME280;48703;51.248;-0.546;2023-07-31T03:20:55;100069;;;16.90;100.00
62632;BME280;48703;51.248;-0.546;2023-07-31T03:23:57;100066;;;16.91;100.00
62632;BME280;48703;51.248;-0.546;2023-07-31T03:26:58;100066;;;16.92;100.00
62632;BME280;48703;51.248;-0.546;2023-07-31T03:30:00;100065;;;16.94;100.00
62632;BME280;48703;51.248;-0.546;2023-07-31T03:33:02;100064;;;16.95;100.00
62632;BME280;48703;51.248;-0.546;2023-07-31T03:36:04;100061;;;16.96;100.00
62632;BME280;48703;51.248;-0.546;2023-07-31T03:39:06;100055;;;16.98;100.00
62632;BME280;48703;51.248;-0.546;2023-07-31T03:42:08;100048;;;16.99;100.00
62632;BME280;48703;51.248;-0.546;2023-07-31T03:45:10;100032;;;16.99;100.00
62632;BME280;48703;51.248;-0.546;2023-07-31T03:48:12;100016;;;17.00;100.00
62632;BME280;48703;51.248;-0.546;2023-07-31T03:51:13;100026;;;17.01;100.00
62632;BME280;48703;51.248;-0.546;2023-07-31T03:54:15;100029;;;17.01;100.00
62632;BME280;48703;51.248;-0.546;2023-07-31T03:57:17;100031;;;17.02;100.00
62632;BME280;48703;51.248;-0.546;2023-07-31T04:00:19;100028;;;17.02;100.00
62632;BME280;48703;51.248;-0.546;2023-07-31T04:03:21;100032;;;17.03;100.00
62632;BME280;48703;51.248;-0.546;2023-07-31T04:06:23;100032;;;17.04;100.00
62632;BME280;48703;51.248;-0.546;2023-07-31T04:09:25;100032;;;17.06;100.00
62632;BME280;48703;51.248;-0.546;2023-07-31T04:12:27;100032;;;17.07;100.00
62632;BME280;48703;51.248;-0.546;2023-07-31T04:15:28;100037;;;17.09;100.00
62632;BME280;48703;51.248;-0.546;2023-07-31T04:18:30;100033;;;17.10;100.00
62632;BME280;48703;51.248;-0.546;2023-07-31T04:21:32;100023;;;17.11;100.00
62632;BME280;48703;51.248;-0.546;2023-07-31T04:24:34;100024;;;17.12;100.00
62632;BME280;48703;51.248;-0.546;2023-07-31T04:27:36;100027;;;17.14;100.00
62632;BME280;48703;51.248;-0.546;2023-07-31T04:30:38;100028;;;17.15;100.00
62632;BME280;48703;51.248;-0.546;2023-07-31T04:33:40;100029;;;17.16;100.00
62632;BME280;48703;51.248;-0.546;2023-07-31T04:36:42;100029;;;17.17;100.00
62632;BME280;48703;51.248;-0.546;2023-07-31T04:39:43;100035;;;17.18;100.00
62632;BME280;48703;51.248;-0.546;2023-07-31T04:42:45;100038;;;17.19;100.00
62632;BME280;48703;51.248;-0.546;2023-07-31T04:45:47;100042;;;17.20;100.00
62632;BME280;48703;51.248;-0.546;2023-07-31T04:48:49;100043;;;17.21;100.00
62632;BME280;48703;51.248;-0.546;2023-07-31T04:51:51;100041;;;17.21;100.00
62632;BME280;48703;51.248;-0.546;2023-07-31T04:54:53;100043;;;17.23;100.00
62632;BME280;48703;51.248;-0.546;2023-07-31T04:57:55;100039;;;17.23;100.00
62632;BME280;48703;51.248;-0.546;2023-07-31T05:00:57;100038;;;17.24;100.00
62632;BME280;48703;51.248;-0.546;2023-07-31T05:03:58;100037;;;17.25;100.00
62632;BME280;48703;51.248;-0.546;2023-07-31T05:07:00;100038;;;17.26;100.00
62632;BME280;48703;51.248;-0.546;2023-07-31T05:10:02;100039;;;17.27;100.00
62632;BME280;48703;51.248;-0.546;2023-07-31T05:13:04;100039;;;17.28;100.00
62632;BME280;48703;51.248;-0.546;2023-07-31T05:16:06;100033;;;17.29;100.00
62632;BME280;48703;51.248;-0.546;2023-07-31T05:19:08;100028;;;17.30;100.00
62632;BME280;48703;51.248;-0.546;2023-07-31T05:22:10;100027;;;17.31;100.00
62632;BME280;48703;51.248;-0.546;2023-07-31T05:25:12;100024;;;17.32;100.00
62632;BME280;48703;51.248;-0.546;2023-07-31T05:28:13;100021;;;17.32;100.00
62632;BME280;48703;51.248;-0.546;2023-07-31T05:31:15;100027;;;17.33;100.00
62632;BME280;48703;51.248;-0.546;2023-07-31T05:34:17;100029;;;17.34;100.00
62632;BME280;48703;51.248;-0.546;2023-07-31T05:37:19;100029;;;17.35;100.00
62632;BME280;48703;51.248;-0.546;2023-07-31T05:40:21;100026;;;17.37;100.00
62632;BME280;48703;51.248;-0.546;2023-07-31T05:43:23;100019;;;17.38;100.00
62632;BME280;48703;51.248;-0.546;2023-07-31T05:46:25;100021;;;17.39;100.00
62632;BME280;48703;51.248;-0.546;2023-07-31T05:49:27;100027;;;17.43;100.00
62632;BME280;48703;51.248;-0.546;2023-07-31T05:52:28;100025;;;17.46;100.00
62632;BME280;48703;51.248;-0.546;2023-07-31T05:55:30;100020;;;17.48;100.00
62632;BME280;48703;51.248;-0.546;2023-07-31T05:58:32;100015;;;17.51;100.00
62632;BME280;48703;51.248;-0.546;2023-07-31T06:01:34;100019;;;17.54;100.00
62632;BME280;48703;51.248;-0.546;2023-07-31T06:04:36;100024;;;17.57;100.00
62632;BME280;48703;51.248;-0.546;2023-07-31T06:07:38;100022;;;17.62;99.98
62632;BME280;48703;51.248;-0.546;2023-07-31T06:10:40;100018;;;17.67;99.99
62632;BME280;48703;51.248;-0.546;2023-07-31T06:13:42;100019;;;17.71;99.85
62632;BME280;48703;51.248;-0.546;2023-07-31T06:16:43;100030;;;17.75;99.12
62632;BME280;48703;51.248;-0.546;2023-07-31T06:19:45;100031;;;17.79;99.19
62632;BME280;48703;51.248;-0.546;2023-07-31T06:22:47;100026;;;17.82;99.36
62632;BME280;48703;51.248;-0.546;2023-07-31T06:25:49;100022;;;17.84;99.05
62632;BME280;48703;51.248;-0.546;2023-07-31T06:28:51;100020;;;17.84;98.82
62632;BME280;48703;51.248;-0.546;2023-07-31T06:31:53;100022;;;17.84;98.58
62632;BME280;48703;51.248;-0.546;2023-07-31T06:34:55;100022;;;17.86;98.85
62632;BME280;48703;51.248;-0.546;2023-07-31T06:37:57;100015;;;17.88;99.17
62632;BME280;48703;51.248;-0.546;2023-07-31T06:40:58;100005;;;17.91;98.54
62632;BME280;48703;51.248;-0.546;2023-07-31T06:44:00;100001;;;17.95;98.78
62632;BME280;48703;51.248;-0.546;2023-07-31T06:47:02;100008;;;17.98;98.46
62632;BME280;48703;51.248;-0.546;2023-07-31T06:50:04;100008;;;17.99;98.35
62632;BME280;48703;51.248;-0.546;2023-07-31T06:53:06;100007;;;18.01;98.13
62632;BME280;48703;51.248;-0.546;2023-07-31T06:56:08;100006;;;18.04;98.33
62632;BME280;48703;51.248;-0.546;2023-07-31T06:59:10;100001;;;18.06;98.97
62632;BME280;48703;51.248;-0.546;2023-07-31T07:02:12;100003;;;18.07;98.22
62632;BME280;48703;51.248;-0.546;2023-07-31T07:05:13;99999;;;18.09;98.07
62632;BME280;48703;51.248;-0.546;2023-07-31T07:08:15;99995;;;18.10;97.79
62632;BME280;48703;51.248;-0.546;2023-07-31T07:11:17;99995;;;18.10;97.96
62632;BME280;48703;51.248;-0.546;2023-07-31T07:14:19;99999;;;18.09;98.01
62632;BME280;48703;51.248;-0.546;2023-07-31T07:17:21;99996;;;18.10;97.88
62632;BME280;48703;51.248;-0.546;2023-07-31T07:20:23;99988;;;18.11;97.78
62632;BME280;48703;51.248;-0.546;2023-07-31T07:23:25;99985;;;18.12;97.88
62632;BME280;48703;51.248;-0.546;2023-07-31T07:26:27;99973;;;18.14;97.73
62632;BME280;48703;51.248;-0.546;2023-07-31T07:29:28;99974;;;18.14;97.68
62632;BME280;48703;51.248;-0.546;2023-07-31T07:32:30;99973;;;18.15;97.37
62632;BME280;48703;51.248;-0.546;2023-07-31T07:35:33;99971;;;18.17;97.30
62632;BME280;48703;51.248;-0.546;2023-07-31T07:38:34;99979;;;18.18;97.67
62632;BME280;48703;51.248;-0.546;2023-07-31T07:41:36;99981;;;18.20;97.28
62632;BME280;48703;51.248;-0.546;2023-07-31T07:44:38;99975;;;18.22;96.91
62632;BME280;48703;51.248;-0.546;2023-07-31T07:47:40;99969;;;18.24;96.90
62632;BME280;48703;51.248;-0.546;2023-07-31T07:50:42;99969;;;18.26;96.83
62632;BME280;48703;51.248;-0.546;2023-07-31T07:53:43;99961;;;18.28;96.62
62632;BME280;48703;51.248;-0.546;2023-07-31T07:56:45;99956;;;18.31;96.61
62632;BME280;48703;51.248;-0.546;2023-07-31T07:59:47;99961;;;18.34;96.16
62632;BME280;48703;51.248;-0.546;2023-07-31T08:02:49;99955;;;18.38;95.95
62632;BME280;48703;51.248;-0.546;2023-07-31T08:05:51;99949;;;18.43;95.76
62632;BME280;48703;51.248;-0.546;2023-07-31T08:08:53;99951;;;18.48;95.99
62632;BME280;48703;51.248;-0.546;2023-07-31T08:11:55;99950;;;18.51;96.04
62632;BME280;48703;51.248;-0.546;2023-07-31T08:14:56;99938;;;18.54;95.90
62632;BME280;48703;51.248;-0.546;2023-07-31T08:17:58;99937;;;18.56;95.54
62632;BME280;48703;51.248;-0.546;2023-07-31T08:21:01;99932;;;18.60;95.41
62632;BME280;48703;51.248;-0.546;2023-07-31T08:24:02;99917;;;18.65;95.45
62632;BME280;48703;51.248;-0.546;2023-07-31T08:27:05;99908;;;18.70;95.06
62632;BME280;48703;51.248;-0.546;2023-07-31T08:30:06;99920;;;18.73;95.09
62632;BME280;48703;51.248;-0.546;2023-07-31T08:33:08;99923;;;18.76;94.60
62632;BME280;48703;51.248;-0.546;2023-07-31T08:36:10;99928;;;18.81;94.15
62632;BME280;48703;51.248;-0.546;2023-07-31T08:39:12;99917;;;18.84;93.90
62632;BME280;48703;51.248;-0.546;2023-07-31T08:42:13;99913;;;18.85;92.95
62632;BME280;48703;51.248;-0.546;2023-07-31T08:45:16;99907;;;18.88;92.63
62632;BME280;48703;51.248;-0.546;2023-07-31T08:48:17;99908;;;18.87;91.72
62632;BME280;48703;51.248;-0.546;2023-07-31T08:51:19;99904;;;18.90;92.72
62632;BME280;48703;51.248;-0.546;2023-07-31T08:54:21;99908;;;18.92;92.40
62632;BME280;48703;51.248;-0.546;2023-07-31T08:57:23;99908;;;18.92;91.77
62632;BME280;48703;51.248;-0.546;2023-07-31T09:00:25;99907;;;18.97;92.03
62632;BME280;48703;51.248;-0.546;2023-07-31T09:03:27;99907;;;19.03;91.53
62632;BME280;48703;51.248;-0.546;2023-07-31T09:06:29;99917;;;19.07;90.66
62632;BME280;48703;51.248;-0.546;2023-07-31T09:09:30;99916;;;19.08;90.69
62632;BME280;48703;51.248;-0.546;2023-07-31T09:12:32;99916;;;19.11;90.80
62632;BME280;48703;51.248;-0.546;2023-07-31T09:15:34;99923;;;19.09;90.42
62632;BME280;48703;51.248;-0.546;2023-07-31T09:18:43;99921;;;19.10;90.76
62632;BME280;48703;51.248;-0.546;2023-07-31T09:21:42;99902;;;19.09;89.62
62632;BME280;48703;51.248;-0.546;2023-07-31T09:24:40;99890;;;19.11;89.73
62632;BME280;48703;51.248;-0.546;2023-07-31T09:27:49;99889;;;19.14;89.11
62632;BME280;48703;51.248;-0.546;2023-07-31T09:30:44;99886;;;19.20;89.52
62632;BME280;48703;51.248;-0.546;2023-07-31T09:33:54;99887;;;19.27;89.34
62632;BME280;48703;51.248;-0.546;2023-07-31T09:36:48;99887;;;19.35;88.99
62632;BME280;48703;51.248;-0.546;2023-07-31T09:39:49;99891;;;19.42;88.25
62632;BME280;48703;51.248;-0.546;2023-07-31T09:42:51;99882;;;19.51;87.86
62632;BME280;48703;51.248;-0.546;2023-07-31T09:45:54;99875;;;19.60;87.32
62632;BME280;48703;51.248;-0.546;2023-07-31T09:49:03;99873;;;19.71;87.47
62632;BME280;48703;51.248;-0.546;2023-07-31T09:51:56;99862;;;19.78;86.72
62632;BME280;48703;51.248;-0.546;2023-07-31T09:54:58;99867;;;19.83;85.63
62632;BME280;48703;51.248;-0.546;2023-07-31T09:58:02;99865;;;19.84;85.59
62632;BME280;48703;51.248;-0.546;2023-07-31T10:01:02;99860;;;19.84;85.91
62632;BME280;48703;51.248;-0.546;2023-07-31T10:04:04;99855;;;19.83;86.09
62632;BME280;48703;51.248;-0.546;2023-07-31T10:07:06;99857;;;19.82;85.74
62632;BME280;48703;51.248;-0.546;2023-07-31T10:10:08;99865;;;19.81;85.70
62632;BME280;48703;51.248;-0.546;2023-07-31T10:13:10;99868;;;19.80;86.09
62632;BME280;48703;51.248;-0.546;2023-07-31T10:16:11;99859;;;19.81;85.45
62632;BME280;48703;51.248;-0.546;2023-07-31T10:19:13;99849;;;19.84;85.83
62632;BME280;48703;51.248;-0.546;2023-07-31T10:22:15;99860;;;19.88;84.63
62632;BME280;48703;51.248;-0.546;2023-07-31T10:25:17;99871;;;19.91;84.76
62632;BME280;48703;51.248;-0.546;2023-07-31T10:28:19;99882;;;19.94;84.26
62632;BME280;48703;51.248;-0.546;2023-07-31T10:31:21;99884;;;19.96;84.28
62632;BME280;48703;51.248;-0.546;2023-07-31T10:34:23;99897;;;19.96;84.31
62632;BME280;48703;51.248;-0.546;2023-07-31T10:37:25;99904;;;19.98;84.63
62632;BME280;48703;51.248;-0.546;2023-07-31T10:39:41;99910;;;19.96;83.54
62632;BME280;48703;51.248;-0.546;2023-07-31T10:42:28;99924;;;19.92;84.43
62632;BME280;48703;51.248;-0.546;2023-07-31T10:45:31;99917;;;19.92;81.91
62632;BME280;48703;51.248;-0.546;2023-07-31T10:48:33;99911;;;19.87;75.83
62632;BME280;48703;51.248;-0.546;2023-07-31T10:51:34;99913;;;19.87;76.64
62632;BME280;48703;51.248;-0.546;2023-07-31T10:54:35;99914;;;19.87;76.88
62632;BME280;48703;51.248;-0.546;2023-07-31T10:57:37;99916;;;19.76;71.49
62632;BME280;48703;51.248;-0.546;2023-07-31T11:00:39;99917;;;19.64;72.00
62632;BME280;48703;51.248;-0.546;2023-07-31T11:03:44;99890;;;19.62;74.36
62632;BME280;48703;51.248;-0.546;2023-07-31T11:06:45;99890;;;19.59;74.30
62632;BME280;48703;51.248;-0.546;2023-07-31T11:09:45;99894;;;19.59;73.79
62632;BME280;48703;51.248;-0.546;2023-07-31T11:12:46;99900;;;19.56;72.89
62632;BME280;48703;51.248;-0.546;2023-07-31T11:15:48;99908;;;19.60;73.71
62632;BME280;48703;51.248;-0.546;2023-07-31T11:18:51;99897;;;19.67;74.11
62632;BME280;48703;51.248;-0.546;2023-07-31T11:21:52;99881;;;19.72;73.46
62632;BME280;48703;51.248;-0.546;2023-07-31T11:24:54;99880;;;19.77;73.41
62632;BME280;48703;51.248;-0.546;2023-07-31T11:27:56;99865;;;19.79;74.37
62632;BME280;48703;51.248;-0.546;2023-07-31T11:30:58;99865;;;19.81;74.10
62632;BME280;48703;51.248;-0.546;2023-07-31T11:34:07;99892;;;19.78;73.66
62632;BME280;48703;51.248;-0.546;2023-07-31T11:37:02;99887;;;19.77;74.71
62632;BME280;48703;51.248;-0.546;2023-07-31T11:40:04;99896;;;19.78;74.46
62632;BME280;48703;51.248;-0.546;2023-07-31T11:43:05;99906;;;19.78;75.27
62632;BME280;48703;51.248;-0.546;2023-07-31T11:46:07;99915;;;19.78;75.61
62632;BME280;48703;51.248;-0.546;2023-07-31T11:49:09;99916;;;19.78;74.06
62632;BME280;48703;51.248;-0.546;2023-07-31T11:52:11;99911;;;19.76;74.58
62632;BME280;48703;51.248;-0.546;2023-07-31T11:55:13;99908;;;19.75;75.52
62632;BME280;48703;51.248;-0.546;2023-07-31T11:58:15;99913;;;19.74;75.54
62632;BME280;48703;51.248;-0.546;2023-07-31T12:01:17;99899;;;19.69;75.29
62632;BME280;48703;51.248;-0.546;2023-07-31T12:04:18;99892;;;19.69;75.69
62632;BME280;48703;51.248;-0.546;2023-07-31T12:07:20;99895;;;19.67;75.26
62632;BME280;48703;51.248;-0.546;2023-07-31T12:10:23;99888;;;19.64;75.66
62632;BME280;48703;51.248;-0.546;2023-07-31T12:13:24;99889;;;19.59;76.28
62632;BME280;48703;51.248;-0.546;2023-07-31T12:16:26;99887;;;19.56;75.84
62632;BME280;48703;51.248;-0.546;2023-07-31T12:19:28;99886;;;19.50;75.48
62632;BME280;48703;51.248;-0.546;2023-07-31T12:22:30;99891;;;19.46;75.99
62632;BME280;48703;51.248;-0.546;2023-07-31T12:25:32;99891;;;19.42;75.84
62632;BME280;48703;51.248;-0.546;2023-07-31T12:28:35;99882;;;19.38;75.83
62632;BME280;48703;51.248;-0.546;2023-07-31T12:31:35;99876;;;19.30;74.58
62632;BME280;48703;51.248;-0.546;2023-07-31T12:34:42;99866;;;19.23;72.79
62632;BME280;48703;51.248;-0.546;2023-07-31T12:37:39;99865;;;19.20;74.20
62632;BME280;48703;51.248;-0.546;2023-07-31T12:40:41;99873;;;19.14;73.79
62632;BME280;48703;51.248;-0.546;2023-07-31T12:43:43;99880;;;19.09;76.54
62632;BME280;48703;51.248;-0.546;2023-07-31T12:46:45;99873;;;18.99;76.53
62632;BME280;48703;51.248;-0.546;2023-07-31T12:49:47;99866;;;18.90;77.45
62632;BME280;48703;51.248;-0.546;2023-07-31T12:52:48;99856;;;18.78;77.05
62632;BME280;48703;51.248;-0.546;2023-07-31T12:55:50;99849;;;18.76;78.37
62632;BME280;48703;51.248;-0.546;2023-07-31T12:58:52;99847;;;18.68;78.09
62632;BME280;48703;51.248;-0.546;2023-07-31T13:01:54;99852;;;18.62;78.84
62632;BME280;48703;51.248;-0.546;2023-07-31T13:04:56;99854;;;18.56;80.27
62632;BME280;48703;51.248;-0.546;2023-07-31T13:07:58;99857;;;18.52;80.63
62632;BME280;48703;51.248;-0.546;2023-07-31T13:11:00;99859;;;18.47;81.84
62632;BME280;48703;51.248;-0.546;2023-07-31T13:14:02;99869;;;18.45;82.44
62632;BME280;48703;51.248;-0.546;2023-07-31T13:17:03;99868;;;18.36;82.65
62632;BME280;48703;51.248;-0.546;2023-07-31T13:20:06;99863;;;18.28;83.68
62632;BME280;48703;51.248;-0.546;2023-07-31T13:23:07;99869;;;18.25;84.15
62632;BME280;48703;51.248;-0.546;2023-07-31T13:26:09;99882;;;18.23;84.67
62632;BME280;48703;51.248;-0.546;2023-07-31T13:29:11;99883;;;18.21;84.42
62632;BME280;48703;51.248;-0.546;2023-07-31T13:32:13;99894;;;18.19;85.55
62632;BME280;48703;51.248;-0.546;2023-07-31T13:35:15;99896;;;18.17;85.33
62632;BME280;48703;51.248;-0.546;2023-07-31T13:38:17;99891;;;18.13;85.82
62632;BME280;48703;51.248;-0.546;2023-07-31T13:41:18;99890;;;18.11;85.97
62632;BME280;48703;51.248;-0.546;2023-07-31T13:44:20;99879;;;18.07;85.95
62632;BME280;48703;51.248;-0.546;2023-07-31T13:47:22;99868;;;18.03;86.17
62632;BME280;48703;51.248;-0.546;2023-07-31T13:50:24;99867;;;17.98;86.74
62632;BME280;48703;51.248;-0.546;2023-07-31T13:53:26;99829;;;17.95;87.09
62632;BME280;48703;51.248;-0.546;2023-07-31T13:56:28;99795;;;17.92;87.51
62632;BME280;48703;51.248;-0.546;2023-07-31T13:59:30;99829;;;17.89;88.93
62632;BME280;48703;51.248;-0.546;2023-07-31T14:02:32;99792;;;17.87;88.02
62632;BME280;48703;51.248;-0.546;2023-07-31T14:05:33;99788;;;17.83;88.84
62632;BME280;48703;51.248;-0.546;2023-07-31T14:08:35;99848;;;17.81;91.12
62632;BME280;48703;51.248;-0.546;2023-07-31T14:11:37;99868;;;17.76;89.68
62632;BME280;48703;51.248;-0.546;2023-07-31T14:14:39;99853;;;17.73;89.18
62632;BME280;48703;51.248;-0.546;2023-07-31T14:17:41;99830;;;17.70;89.79
62632;BME280;48703;51.248;-0.546;2023-07-31T14:20:43;99814;;;17.65;89.36
62632;BME280;48703;51.248;-0.546;2023-07-31T14:23:45;99788;;;17.63;89.66
62632;BME280;48703;51.248;-0.546;2023-07-31T14:26:47;99742;;;17.63;89.34
62632;BME280;48703;51.248;-0.546;2023-07-31T14:29:48;99796;;;17.66;91.84
62632;BME280;48703;51.248;-0.546;2023-07-31T14:32:50;99808;;;17.66;91.63
62632;BME280;48703;51.248;-0.546;2023-07-31T14:35:52;99829;;;17.69;91.36
62632;BME280;48703;51.248;-0.546;2023-07-31T14:38:54;99824;;;17.70;90.94
62632;BME280;48703;51.248;-0.546;2023-07-31T14:41:56;99823;;;17.70;90.37
62632;BME280;48703;51.248;-0.546;2023-07-31T14:44:58;99820;;;17.66;89.55
62632;BME280;48703;51.248;-0.546;2023-07-31T14:48:00;99800;;;17.61;88.82
62632;BME280;48703;51.248;-0.546;2023-07-31T14:51:02;99792;;;17.58;87.72
62632;BME280;48703;51.248;-0.546;2023-07-31T14:54:03;99769;;;17.58;86.94
62632;BME280;48703;51.248;-0.546;2023-07-31T14:57:05;99736;;;17.60;87.08
62632;BME280;48703;51.248;-0.546;2023-07-31T15:00:08;99699;;;17.64;86.92
62632;BME280;48703;51.248;-0.546;2023-07-31T15:03:09;99690;;;17.70;87.17
62632;BME280;48703;51.248;-0.546;2023-07-31T15:06:11;99704;;;17.75;87.94
62632;BME280;48703;51.248;-0.546;2023-07-31T15:09:13;99718;;;17.80;88.85
62632;BME280;48703;51.248;-0.546;2023-07-31T15:12:15;99745;;;17.84;90.30
62632;BME280;48703;51.248;-0.546;2023-07-31T15:15:17;99757;;;17.80;89.62
62632;BME280;48703;51.248;-0.546;2023-07-31T15:18:18;99753;;;17.82;90.15
62632;BME280;48703;51.248;-0.546;2023-07-31T15:21:20;99736;;;17.88;90.28
62632;BME280;48703;51.248;-0.546;2023-07-31T15:24:22;99735;;;17.97;90.12
62632;BME280;48703;51.248;-0.546;2023-07-31T15:27:24;99739;;;18.02;90.42
62632;BME280;48703;51.248;-0.546;2023-07-31T15:30:26;99725;;;18.11;89.06
62632;BME280;48703;51.248;-0.546;2023-07-31T15:33:28;99729;;;18.20;88.79
62632;BME280;48703;51.248;-0.546;2023-07-31T15:36:30;99734;;;18.36;88.02
62632;BME280;48703;51.248;-0.546;2023-07-31T15:39:32;99734;;;18.40;85.12
62632;BME280;48703;51.248;-0.546;2023-07-31T15:42:33;99729;;;18.41;84.82
62632;BME280;48703;51.248;-0.546;2023-07-31T15:45:35;99725;;;18.51;85.52
62632;BME280;48703;51.248;-0.546;2023-07-31T15:48:37;99720;;;18.62;84.24
62632;BME280;48703;51.248;-0.546;2023-07-31T15:51:39;99724;;;18.72;84.24
62632;BME280;48703;51.248;-0.546;2023-07-31T15:54:41;99724;;;18.81;83.69
62632;BME280;48703;51.248;-0.546;2023-07-31T15:57:43;99721;;;18.92;83.08
62632;BME280;48703;51.248;-0.546;2023-07-31T16:00:45;99728;;;19.07;84.34
62632;BME280;48703;51.248;-0.546;2023-07-31T16:03:46;99724;;;19.14;79.89
62632;BME280;48703;51.248;-0.546;2023-07-31T16:06:48;99719;;;19.20;78.86
62632;BME280;48703;51.248;-0.546;2023-07-31T16:09:50;99715;;;19.28;79.35
62632;BME280;48703;51.248;-0.546;2023-07-31T16:12:52;99713;;;19.32;77.79
62632;BME280;48703;51.248;-0.546;2023-07-31T16:15:54;99713;;;19.20;74.74